Time;durP1;ratioP1;P1;durP2;ratioP2;P2;SDS_P1;SDS_P2;PMS_P1;PMS_P2;Temp;Humidity;BMP_temperature;BMP_pressure;BME280_temperature;BME280_humidity;BME280_pressure;Samples;Min_cycle;Max_cycle;Signal;HPM_P1;HPM_P2
2022/09/23 00:00:32;;;;;;;5.70;3.60;;;1.80;99.90;;;;;;8380982;28;20181;-67
2022/09/23 00:04:32;;;;;;;6.17;3.90;;;1.70;99.90;;;;;;8379653;28;20375;-67
2022/09/23 00:08:34;;;;;;;6.10;3.80;;;1.70;99.90;;;;;;8381625;28;20186;-67
2022/09/23 00:12:35;;;;;;;5.57;4.20;;;1.70;99.90;;;;;;8382588;28;20311;-67
2022/09/23 00:16:37;;;;;;;7.33;4.90;;;1.70;99.90;;;;;;8381665;28;20303;-67
2022/09/23 00:20:39;;;;;;;6.73;4.13;;;1.70;99.90;;;;;;8383891;28;20214;-67
2022/09/23 00:24:40;;;;;;;6.10;4.13;;;1.70;99.90;;;;;;8396976;28;20193;-67
2022/09/23 00:28:41;;;;;;;6.83;4.10;;;1.70;99.90;;;;;;8396458;28;20193;-67
2022/09/23 00:32:41;;;;;;;5.77;3.50;;;1.70;99.90;;;;;;8382946;28;20188;-67
2022/09/23 00:36:42;;;;;;;6.27;2.93;;;1.60;99.90;;;;;;8382792;28;20212;-66
2022/09/23 00:40:44;;;;;;;6.80;3.50;;;1.50;99.90;;;;;;8385370;28;20181;-67
2022/09/23 00:44:48;;;;;;;4.13;3.07;;;1.40;99.90;;;;;;8381116;28;20193;-67
2022/09/23 00:48:55;;;;;;;5.17;3.03;;;1.30;99.90;;;;;;8379606;28;20275;-67
2022/09/23 00:52:59;;;;;;;5.73;3.80;;;1.30;99.90;;;;;;8374095;28;20235;-67
2022/09/23 00:57:02;;;;;;;4.90;3.27;;;1.20;99.90;;;;;;8395485;28;20220;-67
2022/09/23 01:01:04;;;;;;;6.37;3.70;;;1.30;99.90;;;;;;8373443;28;20182;-67
2022/09/23 01:05:06;;;;;;;6.70;3.77;;;1.20;99.90;;;;;;8378823;28;20284;-67
2022/09/23 01:09:07;;;;;;;4.53;3.33;;;1.20;99.90;;;;;;8397296;28;20193;-66
2022/09/23 01:13:31;;;;;;;5.03;3.63;;;1.10;99.90;;;;;;8380795;28;20216;-66
2022/09/23 01:17:50;;;;;;;4.63;3.13;;;1.10;99.90;;;;;;8385581;28;20193;-67
2022/09/23 01:21:51;;;;;;;5.97;3.67;;;1.00;99.90;;;;;;8386039;28;20185;-67
2022/09/23 01:26:20;;;;;;;6.87;3.50;;;1.00;99.90;;;;;;8382240;28;20185;-67
2022/09/23 01:30:39;;;;;;;6.07;3.97;;;0.90;99.90;;;;;;8371329;28;20200;-66
2022/09/23 01:34:51;;;;;;;7.97;3.63;;;0.90;99.90;;;;;;8387351;28;20205;-67
2022/09/23 01:39:18;;;;;;;5.60;4.03;;;0.90;99.90;;;;;;8380429;28;20223;-66
2022/09/23 01:43:55;;;;;;;5.73;3.77;;;0.90;99.90;;;;;;8386366;28;20354;-66
2022/09/23 01:48:02;;;;;;;6.43;4.00;;;0.80;99.90;;;;;;8383944;28;20185;-67
2022/09/23 01:52:25;;;;;;;6.53;3.47;;;0.80;99.90;;;;;;8387302;28;20221;-66
2022/09/23 01:57:03;;;;;;;6.27;4.00;;;0.80;99.90;;;;;;8383047;28;20220;-66
2022/09/23 02:01:07;;;;;;;7.57;4.60;;;0.80;99.90;;;;;;8382613;28;20284;-66
2022/09/23 02:05:17;;;;;;;6.17;4.10;;;0.80;99.90;;;;;;8390836;28;20192;-66
2022/09/23 02:09:24;;;;;;;6.80;3.90;;;0.70;99.90;;;;;;8384253;28;20182;-67
2022/09/23 02:13:35;;;;;;;5.47;3.97;;;0.70;99.90;;;;;;8385012;28;20315;-66
2022/09/23 02:17:51;;;;;;;6.13;3.77;;;0.60;99.90;;;;;;8377445;28;20208;-66
2022/09/23 02:22:06;;;;;;;7.50;4.07;;;0.60;99.90;;;;;;8384654;28;20189;-66
2022/09/23 02:26:13;;;;;;;5.87;3.67;;;0.50;99.90;;;;;;8381092;28;20327;-66
2022/09/23 02:30:19;;;;;;;5.73;3.50;;;0.50;99.90;;;;;;8386241;28;20186;-66
2022/09/23 02:34:32;;;;;;;8.13;4.03;;;0.40;99.90;;;;;;8383293;28;20224;-67
2022/09/23 02:38:38;;;;;;;5.67;4.00;;;0.40;99.90;;;;;;8374991;28;20200;-68
2022/09/23 02:43:05;;;;;;;7.47;4.07;;;0.40;99.90;;;;;;8382793;28;20186;-67
2022/09/23 02:47:06;;;;;;;6.93;4.67;;;0.40;99.90;;;;;;8382377;28;20185;-67
2022/09/23 02:51:08;;;;;;;6.57;4.10;;;0.40;99.90;;;;;;8387556;28;20203;-67
2022/09/23 02:55:11;;;;;;;6.97;4.43;;;0.40;99.90;;;;;;8387637;28;20296;-67
2022/09/23 02:59:12;;;;;;;6.57;4.17;;;0.40;99.90;;;;;;8386742;28;20185;-67
2022/09/23 03:03:38;;;;;;;5.80;3.67;;;0.30;99.90;;;;;;8386408;28;20196;-67
2022/09/23 03:08:07;;;;;;;8.50;4.67;;;0.30;99.90;;;;;;8377246;28;20185;-67
2022/09/23 03:12:25;;;;;;;6.33;4.37;;;0.30;99.90;;;;;;8380898;28;20217;-66
2022/09/23 03:16:46;;;;;;;6.37;4.23;;;0.20;99.90;;;;;;8382449;28;20291;-67
2022/09/23 03:21:02;;;;;;;8.27;4.30;;;0.20;99.90;;;;;;8377869;28;20261;-67
2022/09/23 03:25:07;;;;;;;5.97;4.17;;;0.10;99.90;;;;;;8386751;28;20193;-68
2022/09/23 03:29:10;;;;;;;6.33;3.83;;;0.10;99.90;;;;;;8403395;28;20194;-68
2022/09/23 03:33:16;;;;;;;6.03;4.33;;;0.10;99.90;;;;;;8384420;28;20188;-68
2022/09/23 03:37:24;;;;;;;7.77;4.53;;;0.00;99.90;;;;;;8380970;28;20392;-68
2022/09/23 03:41:38;;;;;;;7.07;4.83;;;0.00;99.90;;;;;;8382897;28;20184;-68
2022/09/23 03:45:41;;;;;;;6.93;4.67;;;0.00;99.90;;;;;;8382398;28;20206;-68
2022/09/23 03:49:47;;;;;;;6.17;3.97;;;-0.10;99.90;;;;;;8382148;28;20193;-69
2022/09/23 03:53:49;;;;;;;5.87;3.77;;;-0.10;99.90;;;;;;8382355;28;20275;-70
2022/09/23 03:57:50;;;;;;;6.80;3.87;;;-0.10;99.90;;;;;;8381259;28;20184;-68
2022/09/23 04:01:53;;;;;;;6.03;3.83;;;-0.10;99.90;;;;;;8384153;28;20284;-68
2022/09/23 04:05:53;;;;;;;8.07;4.60;;;-0.20;99.90;;;;;;8380460;28;20188;-68
2022/09/23 04:09:54;;;;;;;5.13;3.57;;;-0.10;99.90;;;;;;8374555;28;20188;-68
2022/09/23 04:13:55;;;;;;;7.57;4.57;;;-0.20;99.90;;;;;;8383607;28;20248;-68
2022/09/23 04:17:56;;;;;;;6.70;3.90;;;-0.20;99.90;;;;;;8384372;28;20191;-68
2022/09/23 04:21:57;;;;;;;7.30;4.30;;;-0.20;99.90;;;;;;8388095;28;20201;-68
2022/09/23 04:26:00;;;;;;;6.87;3.93;;;-0.20;99.90;;;;;;8379463;28;20185;-68
2022/09/23 04:30:01;;;;;;;8.10;4.67;;;-0.20;99.90;;;;;;8379194;28;20255;-68
2022/09/23 04:34:02;;;;;;;6.80;4.13;;;-0.20;99.90;;;;;;8382709;28;20216;-68
2022/09/23 04:38:03;;;;;;;7.37;4.50;;;-0.20;99.90;;;;;;8378328;28;20185;-69
2022/09/23 04:42:04;;;;;;;7.50;4.23;;;-0.20;99.90;;;;;;8381339;28;20184;-68
2022/09/23 04:46:08;;;;;;;7.77;4.43;;;-0.20;99.90;;;;;;8381780;28;20185;-68
2022/09/23 04:50:09;;;;;;;9.53;4.63;;;-0.20;99.90;;;;;;8369448;28;20193;-67
2022/09/23 04:54:11;;;;;;;9.53;4.63;;;-0.10;99.90;;;;;;8384587;28;20205;-68
2022/09/23 04:58:12;;;;;;;5.17;3.57;;;-0.10;99.90;;;;;;8382077;28;20193;-68
2022/09/23 05:02:13;;;;;;;6.97;4.73;;;0.00;99.90;;;;;;8380709;28;20185;-67
2022/09/23 05:06:14;;;;;;;8.03;4.67;;;0.10;99.90;;;;;;8378615;28;20267;-67
2022/09/23 05:10:15;;;;;;;7.73;5.07;;;0.10;99.90;;;;;;8379717;28;20196;-68
2022/09/23 05:14:16;;;;;;;9.13;5.50;;;0.20;99.90;;;;;;8378819;28;20232;-68
2022/09/23 05:18:17;;;;;;;6.63;4.50;;;0.20;99.90;;;;;;8370649;28;20230;-68
2022/09/23 05:22:17;;;;;;;7.03;5.20;;;0.30;99.90;;;;;;8378702;28;20260;-67
2022/09/23 05:26:18;;;;;;;7.27;4.47;;;0.40;99.90;;;;;;8376290;28;20284;-67
2022/09/23 05:30:19;;;;;;;8.57;6.03;;;0.50;99.90;;;;;;8377151;28;20268;-68
2022/09/23 05:34:20;;;;;;;10.50;6.40;;;0.60;99.90;;;;;;8377539;28;20201;-67
2022/09/23 05:38:21;;;;;;;12.73;6.30;;;0.70;99.90;;;;;;8378752;28;20196;-67
2022/09/23 05:42:22;;;;;;;11.80;6.20;;;0.90;99.90;;;;;;8379183;28;20181;-67
2022/09/23 05:46:26;;;;;;;12.57;5.87;;;1.10;99.90;;;;;;8379409;28;20253;-67
2022/09/23 05:50:27;;;;;;;10.17;6.17;;;1.20;99.90;;;;;;8383912;28;20185;-67
2022/09/23 05:54:28;;;;;;;15.47;9.17;;;1.40;99.90;;;;;;8378213;28;20197;-68
2022/09/23 05:58:29;;;;;;;38.57;28.23;;;1.50;99.90;;;;;;8381935;28;20319;-68
2022/09/23 06:02:30;;;;;;;25.13;15.47;;;1.60;99.90;;;;;;8388997;28;20201;-68
2022/09/23 06:06:40;;;;;;;18.27;12.23;;;1.70;99.90;;;;;;8384179;28;20181;-68
2022/09/23 06:10:43;;;;;;;29.30;17.97;;;1.90;99.90;;;;;;8387798;28;20190;-67
2022/09/23 06:14:44;;;;;;;29.50;18.07;;;2.10;99.90;;;;;;8400022;28;20220;-67
2022/09/23 06:18:45;;;;;;;29.83;18.17;;;2.30;99.90;;;;;;8385216;28;20188;-67
2022/09/23 06:22:46;;;;;;;30.03;19.83;;;2.60;99.90;;;;;;8385499;28;20807;-67
2022/09/23 06:26:47;;;;;;;30.57;20.03;;;2.80;99.90;;;;;;8383730;28;20209;-67
2022/09/23 06:30:48;;;;;;;38.67;23.93;;;3.00;99.90;;;;;;8386212;28;20185;-67
2022/09/23 06:34:49;;;;;;;46.90;28.53;;;3.20;99.90;;;;;;8400780;28;20205;-68
2022/09/23 06:38:50;;;;;;;52.97;31.33;;;3.50;99.90;;;;;;8384210;28;20242;-68
2022/09/23 06:42:58;;;;;;;47.73;29.80;;;3.70;99.90;;;;;;8399857;28;20179;-68
2022/09/23 06:46:59;;;;;;;50.73;30.17;;;4.00;99.90;;;;;;8400534;28;20185;-68
2022/09/23 06:51:03;;;;;;;76.23;39.53;;;4.30;99.90;;;;;;8386108;28;20187;-68
2022/09/23 06:55:04;;;;;;;66.33;37.57;;;4.50;99.90;;;;;;8387611;28;20209;-68
2022/09/23 06:59:15;;;;;;;61.70;37.40;;;4.90;99.90;;;;;;8374992;28;20307;-69
2022/09/23 07:03:16;;;;;;;43.60;29.60;;;5.20;99.90;;;;;;8384404;28;20174;-69
2022/09/23 07:07:17;;;;;;;29.13;21.67;;;5.60;99.90;;;;;;8397824;28;20202;-69
2022/09/23 07:11:21;;;;;;;37.17;25.90;;;6.00;99.90;;;;;;8382742;28;20188;-69
2022/09/23 07:15:22;;;;;;;54.77;34.20;;;6.40;99.90;;;;;;8384052;28;20213;-69
2022/09/23 07:19:23;;;;;;;49.57;32.97;;;6.80;99.90;;;;;;8383928;28;20195;-69
2022/09/23 07:23:24;;;;;;;42.43;28.37;;;7.10;99.90;;;;;;8383874;28;20181;-69
2022/09/23 07:27:27;;;;;;;34.00;24.07;;;7.60;99.90;;;;;;8383824;28;20300;-69
2022/09/23 07:31:32;;;;;;;27.20;18.93;;;8.00;99.90;;;;;;8381049;28;20230;-68
2022/09/23 07:35:37;;;;;;;19.83;12.57;;;8.40;99.90;;;;;;8378664;28;20209;-69
2022/09/23 07:39:41;;;;;;;19.40;9.27;;;8.80;99.90;;;;;;8378423;28;20178;-69
2022/09/23 07:43:43;;;;;;;6.00;3.83;;;9.30;99.90;;;;;;8381452;28;20250;-69
2022/09/23 07:47:44;;;;;;;4.03;2.53;;;9.70;99.90;;;;;;8380852;28;20233;-69
2022/09/23 07:51:45;;;;;;;2.93;1.47;;;10.10;99.90;;;;;;8379935;28;20321;-69
2022/09/23 07:55:55;;;;;;;2.87;1.20;;;10.50;99.90;;;;;;8382108;28;20205;-70
2022/09/23 07:59:56;;;;;;;2.03;1.23;;;10.80;99.90;;;;;;8397885;28;20180;-71
2022/09/23 08:04:00;;;;;;;1.97;1.00;;;11.20;99.90;;;;;;8378954;28;20192;-69
2022/09/23 08:08:01;;;;;;;10.40;5.87;;;11.40;99.90;;;;;;8374673;28;20201;-69
2022/09/23 08:12:02;;;;;;;4.90;2.60;;;11.70;99.90;;;;;;8378159;28;20227;-69
2022/09/23 08:16:03;;;;;;;9.27;3.10;;;12.00;99.90;;;;;;8378771;28;20209;-69
2022/09/23 08:20:05;;;;;;;5.63;2.60;;;12.20;99.90;;;;;;8382081;28;20181;-70
2022/09/23 08:24:11;;;;;;;2.07;1.43;;;12.50;99.90;;;;;;8379878;28;20186;-69
2022/09/23 08:28:17;;;;;;;3.53;1.83;;;12.70;99.90;;;;;;8381628;28;20185;-69
2022/09/23 08:32:18;;;;;;;2.40;1.50;;;12.90;99.90;;;;;;8380260;28;20206;-69
2022/09/23 08:36:18;;;;;;;3.27;2.17;;;13.10;90.90;;;;;;8381692;28;20216;-70
2022/09/23 08:40:20;;;;;;;2.07;1.10;;;13.30;62.30;;;;;;8380090;28;20449;-70
2022/09/23 08:44:33;;;;;;;0.80;0.70;;;13.50;20.60;;;;;;8382614;28;20184;-69
2022/09/23 08:48:41;;;;;;;1.30;0.80;;;13.70;8.50;;;;;;8379114;28;20210;-69
2022/09/23 08:52:51;;;;;;;2.90;0.90;;;13.80;1.00;;;;;;8378313;28;20189;-69
2022/09/23 08:56:57;;;;;;;3.00;1.40;;;14.00;1.00;;;;;;8375374;28;20282;-69
2022/09/23 09:01:16;;;;;;;1.50;0.70;;;14.20;1.00;;;;;;8378998;28;20261;-69
2022/09/23 09:05:26;;;;;;;0.90;0.70;;;14.30;1.00;;;;;;8375553;28;20189;-69
2022/09/23 09:09:32;;;;;;;1.60;0.50;;;14.60;1.00;;;;;;8379790;28;20178;-68
2022/09/23 09:13:42;;;;;;;1.20;0.70;;;14.70;1.00;;;;;;8392596;28;20270;-69
2022/09/23 09:18:03;;;;;;;1.37;0.60;;;14.80;1.00;;;;;;8380732;28;20181;-69
2022/09/23 09:22:12;;;;;;;1.60;0.90;;;14.90;1.00;;;;;;8368635;28;20227;-69
2022/09/23 09:26:30;;;;;;;1.37;0.50;;;14.90;1.00;;;;;;8375893;28;20193;-69
2022/09/23 09:30:33;;;;;;;0.80;0.60;;;15.10;1.00;;;;;;8378591;28;20182;-68
2022/09/23 09:34:36;;;;;;;0.77;0.43;;;15.20;1.00;;;;;;8378329;28;20303;-69
2022/09/23 09:38:37;;;;;;;2.67;2.17;;;15.30;1.00;;;;;;8381916;28;20193;-70
2022/09/23 09:42:40;;;;;;;1.60;1.20;;;15.40;1.00;;;;;;8384836;28;20183;-69
2022/09/23 09:47:07;;;;;;;2.40;0.90;;;15.50;1.00;;;;;;8384272;28;20409;-68
2022/09/23 09:51:21;;;;;;;0.70;0.70;;;15.60;1.00;;;;;;8387795;28;20184;-69
2022/09/23 09:55:27;;;;;;;2.10;0.90;;;15.60;1.00;;;;;;8386802;28;20212;-70
2022/09/23 09:59:28;;;;;;;1.00;0.60;;;15.80;1.00;;;;;;8386005;28;20201;-70
2022/09/23 10:03:38;;;;;;;1.43;0.90;;;15.90;1.00;;;;;;8383483;28;20203;-68
2022/09/23 10:07:42;;;;;;;0.83;0.70;;;16.00;1.00;;;;;;8386976;28;20272;-68
2022/09/23 10:12:14;;;;;;;0.93;0.80;;;16.10;1.00;;;;;;8382715;28;20231;-67
2022/09/23 10:16:15;;;;;;;1.13;0.90;;;16.40;1.00;;;;;;8385113;28;20301;-70
2022/09/23 10:20:16;;;;;;;1.20;0.80;;;16.50;1.00;;;;;;8389893;28;20173;-68
2022/09/23 10:24:24;;;;;;;1.83;0.90;;;16.70;1.00;;;;;;8385721;28;20181;-68
2022/09/23 10:28:38;;;;;;;1.80;0.90;;;16.90;1.00;;;;;;8386934;28;20197;-69
2022/09/23 10:32:44;;;;;;;1.37;0.83;;;17.10;1.00;;;;;;8386786;28;20189;-68
2022/09/23 10:37:10;;;;;;;2.13;0.70;;;17.20;1.00;;;;;;8386525;28;20216;-69
2022/09/23 10:50:29;;;;;;;3.20;1.00;;;18.00;1.00;;;;;;8388182;28;20246;-69
2022/09/23 10:54:58;;;;;;;1.17;0.50;;;18.40;1.00;;;;;;8381798;28;20220;-71
2022/09/23 10:59:26;;;;;;;1.00;0.63;;;18.80;1.00;;;;;;8382410;28;20242;-69
2022/09/23 11:04:02;;;;;;;1.10;0.70;;;18.90;1.00;;;;;;8385305;28;20177;-69
2022/09/23 11:08:12;;;;;;;1.00;0.80;;;18.70;1.00;;;;;;8346338;28;20201;-69
2022/09/23 11:12:25;;;;;;;1.00;0.70;;;18.40;1.00;;;;;;8386068;28;20372;-70
2022/09/23 11:16:39;;;;;;;0.80;0.67;;;17.70;1.00;;;;;;8383330;28;20279;-69
2022/09/23 11:21:09;;;;;;;1.93;1.00;;;17.20;1.00;;;;;;8373053;28;20192;-69
2022/09/23 11:25:32;;;;;;;1.67;0.87;;;17.00;1.00;;;;;;8382534;28;20219;-69
2022/09/23 11:29:34;;;;;;;1.07;0.70;;;17.30;1.00;;;;;;8385190;28;20193;-69
2022/09/23 11:34:00;;;;;;;3.30;0.93;;;17.80;1.00;;;;;;8380417;28;20280;-69
2022/09/23 11:38:10;;;;;;;0.90;0.70;;;18.50;1.00;;;;;;8385163;28;20185;-69
2022/09/23 11:42:53;;;;;;;1.70;0.60;;;18.90;1.00;;;;;;8382489;28;20185;-68
2022/09/23 11:47:20;;;;;;;1.17;0.70;;;18.60;1.00;;;;;;8373808;28;20227;-68
2022/09/23 11:51:33;;;;;;;0.80;0.60;;;18.30;1.00;;;;;;8384013;28;20174;-69
2022/09/23 11:55:43;;;;;;;3.43;0.80;;;18.20;1.00;;;;;;8385460;28;20227;-69
2022/09/23 11:59:53;;;;;;;1.87;0.80;;;18.20;1.00;;;;;;8396989;28;20255;-68
2022/09/23 12:04:22;;;;;;;1.27;0.70;;;18.30;1.00;;;;;;8395368;28;20177;-67
2022/09/23 12:08:24;;;;;;;0.87;0.60;;;18.50;1.00;;;;;;8382305;28;20178;-68
2022/09/23 12:12:40;;;;;;;1.23;0.90;;;18.40;1.00;;;;;;8379606;28;20217;-69
2022/09/23 12:17:19;;;;;;;0.90;0.70;;;18.30;1.00;;;;;;8383131;28;20274;-68
2022/09/23 12:21:55;;;;;;;1.37;1.00;;;18.10;1.00;;;;;;8384271;28;20188;-68
2022/09/23 12:26:01;;;;;;;0.80;0.50;;;17.80;1.00;;;;;;8376534;28;20614;-68
2022/09/23 12:30:12;;;;;;;1.30;0.90;;;17.50;1.00;;;;;;8384910;28;20184;-68
2022/09/23 12:34:29;;;;;;;2.70;0.90;;;17.70;1.00;;;;;;8397521;28;20220;-68
2022/09/23 12:38:48;;;;;;;1.43;1.00;;;17.80;1.00;;;;;;8369864;28;20213;-68
2022/09/23 12:42:50;;;;;;;2.30;0.93;;;18.20;1.00;;;;;;8378933;28;20219;-70
2022/09/23 12:47:20;;;;;;;1.80;1.03;;;18.70;1.00;;;;;;8385633;28;20246;-68
2022/09/23 12:51:20;;;;;;;2.00;0.60;;;18.90;1.00;;;;;;8381707;28;20189;-69
2022/09/23 12:55:22;;;;;;;1.50;0.90;;;18.90;1.00;;;;;;8380767;28;20817;-69
2022/09/23 12:59:26;;;;;;;1.47;1.00;;;19.00;1.00;;;;;;8382138;28;20181;-68
2022/09/23 13:07:48;;;;;;;0.90;0.50;;;19.00;1.00;;;;;;8382604;28;20268;-68
2022/09/23 13:11:51;;;;;;;0.77;0.60;;;19.10;1.00;;;;;;8381173;28;20250;-67
2022/09/23 13:15:53;;;;;;;0.97;0.80;;;19.00;1.00;;;;;;8393432;28;20213;-68
2022/09/23 13:20:19;;;;;;;1.33;0.80;;;18.80;1.00;;;;;;8400317;28;20186;-68
2022/09/23 13:24:32;;;;;;;0.80;0.60;;;18.70;1.00;;;;;;8371392;28;20205;-68
2022/09/23 13:28:53;;;;;;;1.67;0.80;;;18.60;1.00;;;;;;8384062;28;20223;-68
2022/09/23 13:33:20;;;;;;;1.07;0.97;;;18.60;1.00;;;;;;8380631;28;20189;-68
2022/09/23 13:37:24;;;;;;;0.97;0.77;;;18.70;1.00;;;;;;8377310;28;20236;-68
2022/09/23 13:41:27;;;;;;;1.33;0.80;;;18.90;1.00;;;;;;8381651;28;20192;-67
2022/09/23 13:45:32;;;;;;;1.00;0.70;;;19.00;1.00;;;;;;8381506;28;20189;-66
2022/09/23 13:49:35;;;;;;;0.90;0.60;;;19.00;1.00;;;;;;8398912;28;20196;-68
2022/09/23 13:53:36;;;;;;;2.73;0.80;;;19.00;1.00;;;;;;8383575;28;20185;-68
2022/09/23 13:57:37;;;;;;;1.07;0.70;;;19.10;1.00;;;;;;8385904;28;20216;-68
2022/09/23 14:01:38;;;;;;;0.90;0.60;;;19.30;1.00;;;;;;8381347;28;20185;-68
2022/09/23 14:05:39;;;;;;;1.50;0.70;;;19.30;1.00;;;;;;8380143;28;20189;-68
2022/09/23 14:09:48;;;;;;;0.90;0.80;;;19.30;1.00;;;;;;8382464;28;20185;-68
2022/09/23 14:13:53;;;;;;;1.13;0.83;;;19.30;1.00;;;;;;8394590;28;20228;-66
2022/09/23 14:18:00;;;;;;;2.70;0.80;;;19.30;1.00;;;;;;8380377;28;20200;-67
2022/09/23 14:22:02;;;;;;;1.30;0.80;;;19.20;1.00;;;;;;8384364;28;20223;-68
2022/09/23 14:26:03;;;;;;;2.37;0.97;;;19.20;1.00;;;;;;8385389;28;20188;-69
2022/09/23 14:30:04;;;;;;;4.47;1.53;;;19.10;1.00;;;;;;8384434;28;20177;-67
2022/09/23 14:34:37;;;;;;;2.77;1.43;;;19.00;1.00;;;;;;8385679;28;20277;-67
2022/09/23 14:38:50;;;;;;;3.27;1.30;;;18.60;1.00;;;;;;8385254;28;20174;-67
2022/09/23 14:42:57;;;;;;;1.37;1.20;;;18.30;1.00;;;;;;8385965;28;20182;-68
2022/09/23 14:46:58;;;;;;;1.97;1.10;;;18.30;1.00;;;;;;8383915;28;20265;-67
2022/09/23 14:51:08;;;;;;;1.90;1.30;;;18.30;1.00;;;;;;8385138;28;20192;-67
2022/09/23 14:55:15;;;;;;;1.47;1.00;;;18.20;1.00;;;;;;8387824;28;20337;-67
2022/09/23 14:59:36;;;;;;;2.90;1.23;;;18.00;1.00;;;;;;8385979;28;20633;-67
2022/09/23 15:03:48;;;;;;;1.37;0.93;;;17.90;1.00;;;;;;8385108;28;20203;-67
2022/09/23 15:07:56;;;;;;;1.93;1.13;;;17.80;1.00;;;;;;8385941;28;20182;-67
2022/09/23 15:12:19;;;;;;;1.83;1.17;;;17.70;1.00;;;;;;8381905;28;20213;-68
2022/09/23 15:16:26;;;;;;;1.30;0.90;;;17.60;1.00;;;;;;8398845;28;20220;-68
2022/09/23 15:20:27;;;;;;;1.63;1.10;;;17.60;1.00;;;;;;8383834;28;20211;-69
2022/09/23 15:24:46;;;;;;;1.57;1.07;;;17.60;1.00;;;;;;8383766;28;20269;-67
2022/09/23 15:28:48;;;;;;;1.60;1.20;;;17.60;1.00;;;;;;8384729;28;20177;-67
2022/09/23 15:32:52;;;;;;;1.50;1.00;;;17.60;1.00;;;;;;8383033;28;20181;-68
2022/09/23 15:36:53;;;;;;;3.73;1.33;;;17.60;1.00;;;;;;8384425;28;20205;-68
2022/09/23 15:40:54;;;;;;;1.50;1.17;;;17.50;1.00;;;;;;8385110;28;20558;-67
2022/09/23 15:44:56;;;;;;;1.40;1.10;;;17.40;1.00;;;;;;8387408;28;20196;-68
2022/09/23 15:49:07;;;;;;;2.43;1.60;;;17.10;1.00;;;;;;8382559;28;20402;-67
2022/09/23 15:53:20;;;;;;;2.87;1.53;;;16.90;1.00;;;;;;8382655;28;20182;-68
2022/09/23 15:57:21;;;;;;;4.17;2.47;;;16.70;1.00;;;;;;8383306;28;20216;-67
2022/09/23 16:01:34;;;;;;;6.27;3.10;;;16.40;1.00;;;;;;8382202;28;20189;-68
2022/09/23 16:05:45;;;;;;;4.03;2.40;;;16.20;1.00;;;;;;8380499;28;20189;-68
2022/09/23 16:09:46;;;;;;;4.47;2.30;;;16.00;1.00;;;;;;8380544;28;20379;-68
2022/09/23 16:13:47;;;;;;;3.07;1.83;;;15.90;1.00;;;;;;8381310;28;20217;-68
2022/09/23 16:17:48;;;;;;;3.87;1.93;;;15.80;1.00;;;;;;8384156;28;20201;-67
2022/09/23 16:21:49;;;;;;;2.73;1.90;;;15.70;1.00;;;;;;8382862;28;20190;-68
2022/09/23 16:25:50;;;;;;;2.63;1.67;;;15.40;1.00;;;;;;8384483;28;20193;-67
2022/09/23 16:29:52;;;;;;;3.47;1.60;;;15.20;1.00;;;;;;8383823;28;20185;-67
2022/09/23 16:33:53;;;;;;;2.60;1.90;;;15.10;1.00;;;;;;8382041;28;20180;-68
2022/09/23 16:37:55;;;;;;;3.30;1.70;;;14.80;1.00;;;;;;8382083;28;20212;-67
2022/09/23 16:41:57;;;;;;;2.97;1.73;;;14.50;1.00;;;;;;8377619;28;20182;-67
2022/09/23 16:45:58;;;;;;;3.60;1.53;;;14.20;53.30;;;;;;8379328;28;20204;-68
2022/09/23 16:49:59;;;;;;;1.80;1.40;;;13.90;99.90;;;;;;8380634;28;20178;-67
2022/09/23 16:54:00;;;;;;;2.33;1.53;;;13.50;99.90;;;;;;8381696;28;20264;-66
2022/09/23 16:58:07;;;;;;;2.47;1.87;;;13.20;99.90;;;;;;8379078;28;20177;-68
2022/09/23 17:06:29;;;;;;;4.17;2.27;;;12.70;99.90;;;;;;8389643;28;20602;-67
2022/09/23 17:10:30;;;;;;;3.87;2.20;;;12.50;99.90;;;;;;8383179;28;20177;-68
2022/09/23 17:14:31;;;;;;;2.63;1.77;;;12.30;99.90;;;;;;8382924;28;20263;-66
2022/09/23 17:18:32;;;;;;;2.80;1.67;;;12.20;99.90;;;;;;8376417;28;20274;-68
2022/09/23 17:22:33;;;;;;;3.53;2.00;;;12.10;1.00;;;;;;8386146;28;20216;-67
2022/09/23 17:26:34;;;;;;;3.17;2.00;;;12.00;1.00;;;;;;8381268;28;20185;-67
2022/09/23 17:30:35;;;;;;;2.93;2.40;;;12.00;1.00;;;;;;8381190;28;20194;-68
2022/09/23 17:34:36;;;;;;;3.43;1.93;;;11.90;30.40;;;;;;8382133;28;20213;-67
2022/09/23 17:38:40;;;;;;;2.47;1.73;;;11.80;99.90;;;;;;8383384;28;20264;-66
2022/09/23 17:42:41;;;;;;;2.47;2.00;;;11.70;99.90;;;;;;8398220;28;20216;-67
2022/09/23 17:46:42;;;;;;;3.00;2.20;;;11.50;99.90;;;;;;8385829;28;20189;-69
2022/09/23 17:51:00;;;;;;;5.13;3.10;;;11.30;99.90;;;;;;8380020;28;20180;-67
2022/09/23 17:55:01;;;;;;;2.80;2.33;;;11.10;99.90;;;;;;8373135;28;20215;-68
2022/09/23 17:59:02;;;;;;;4.03;2.53;;;11.00;99.90;;;;;;8392917;28;20189;-68
2022/09/23 18:03:03;;;;;;;3.67;2.20;;;10.70;99.90;;;;;;8393858;28;20384;-69
2022/09/23 18:07:04;;;;;;;3.53;2.40;;;10.50;1.00;;;;;;8378890;28;20184;-68
2022/09/23 18:11:25;;;;;;;4.10;2.57;;;10.30;1.00;;;;;;8385316;28;20204;-68
2022/09/23 18:15:26;;;;;;;3.53;2.43;;;10.10;66.70;;;;;;8386725;28;20208;-68
2022/09/23 18:19:27;;;;;;;2.93;2.57;;;9.90;99.90;;;;;;8392001;28;20172;-67
2022/09/23 18:23:28;;;;;;;3.33;2.50;;;9.70;99.90;;;;;;8389163;28;20179;-66
2022/09/23 18:27:33;;;;;;;3.67;2.80;;;9.60;1.00;;;;;;8389141;28;20290;-68
2022/09/23 18:31:36;;;;;;;4.07;3.10;;;9.40;1.00;;;;;;8385966;28;20208;-69
2022/09/23 18:35:37;;;;;;;5.07;3.27;;;9.30;1.00;;;;;;8376073;28;20201;-68
2022/09/23 18:39:39;;;;;;;4.77;3.27;;;9.20;83.30;;;;;;8386093;28;20178;-66
2022/09/23 18:43:41;;;;;;;4.97;3.53;;;9.10;99.90;;;;;;8382357;28;20224;-68
2022/09/23 18:52:02;;;;;;;5.43;4.10;;;8.90;99.90;;;;;;8386503;28;20199;-69
2022/09/23 18:56:14;;;;;;;5.30;4.00;;;8.80;99.90;;;;;;8384261;28;20229;-67
2022/09/23 19:00:16;;;;;;;6.47;4.10;;;8.70;99.90;;;;;;8387383;28;20215;-68
2022/09/23 19:04:19;;;;;;;5.57;3.70;;;8.60;99.90;;;;;;8386216;28;20185;-68
2022/09/23 19:08:20;;;;;;;5.13;4.10;;;8.60;1.00;;;;;;8382213;28;20177;-69
2022/09/23 19:12:24;;;;;;;5.77;4.17;;;8.50;1.00;;;;;;8384752;28;20196;-67
2022/09/23 19:16:26;;;;;;;4.97;4.07;;;8.40;33.80;;;;;;8384818;28;20230;-69
2022/09/23 19:20:27;;;;;;;6.10;4.40;;;8.30;99.90;;;;;;8385164;28;20204;-68
2022/09/23 19:24:28;;;;;;;6.47;4.60;;;8.30;1.00;;;;;;8384131;28;20300;-67
2022/09/23 19:28:29;;;;;;;6.53;4.97;;;8.30;99.90;;;;;;8384602;28;20184;-67
2022/09/23 19:32:32;;;;;;;5.97;4.53;;;8.30;1.00;;;;;;8382774;28;20185;-68
2022/09/23 19:36:36;;;;;;;6.07;4.87;;;8.30;1.00;;;;;;8383937;28;20213;-68
2022/09/23 19:40:38;;;;;;;7.63;6.07;;;8.40;99.90;;;;;;8384032;28;20362;-66
2022/09/23 19:44:39;;;;;;;6.10;4.60;;;8.40;99.90;;;;;;8383406;28;20239;-68
2022/09/23 19:48:41;;;;;;;6.07;4.93;;;8.30;65.10;;;;;;8386259;28;20185;-68
2022/09/23 19:52:42;;;;;;;13.17;9.00;;;8.20;99.90;;;;;;8385734;28;20263;-66
2022/09/23 19:56:43;;;;;;;19.03;12.10;;;8.20;99.90;;;;;;8379316;28;20203;-67
2022/09/23 20:00:44;;;;;;;21.37;13.67;;;8.10;91.20;;;;;;8384920;28;20272;-67
2022/09/23 20:04:45;;;;;;;17.40;10.93;;;8.10;99.90;;;;;;8386066;28;20191;-67
2022/09/23 20:08:48;;;;;;;10.90;8.20;;;8.00;99.90;;;;;;8381184;28;20189;-66
2022/09/23 20:12:49;;;;;;;8.27;6.53;;;8.00;99.90;;;;;;8385346;28;20288;-67
2022/09/23 20:16:50;;;;;;;6.80;5.33;;;8.00;99.90;;;;;;8382077;28;20212;-67
2022/09/23 20:20:54;;;;;;;7.37;5.23;;;7.90;1.00;;;;;;8380917;28;20173;-67
2022/09/23 20:24:56;;;;;;;7.67;5.50;;;7.80;1.00;;;;;;8399108;28;20866;-67
2022/09/23 20:29:00;;;;;;;5.97;4.47;;;7.70;99.90;;;;;;8382492;28;20185;-68
2022/09/23 20:33:01;;;;;;;7.87;4.70;;;7.60;1.00;;;;;;8381494;28;20197;-67
2022/09/23 20:37:04;;;;;;;5.10;4.30;;;7.60;1.00;;;;;;8377715;28;20262;-69
2022/09/23 20:41:05;;;;;;;5.53;4.90;;;7.50;1.00;;;;;;8383757;28;20180;-68
2022/09/23 20:45:07;;;;;;;7.67;5.53;;;7.40;16.10;;;;;;8379059;28;20377;-68
2022/09/23 20:49:07;;;;;;;7.23;6.20;;;7.30;99.90;;;;;;8381315;28;20188;-68
2022/09/23 20:53:08;;;;;;;6.00;4.80;;;7.30;99.90;;;;;;8371329;28;20189;-68
2022/09/23 20:57:11;;;;;;;9.53;5.77;;;7.20;99.90;;;;;;8382457;28;20209;-67
2022/09/23 21:01:13;;;;;;;7.73;5.77;;;7.10;99.90;;;;;;8385557;28;20189;-67
2022/09/23 21:05:14;;;;;;;7.10;5.57;;;7.00;99.90;;;;;;8382307;28;20218;-67
2022/09/23 21:09:15;;;;;;;6.30;5.23;;;6.90;99.90;;;;;;8383928;28;20185;-67
2022/09/23 21:13:16;;;;;;;8.67;5.77;;;6.80;99.90;;;;;;8380671;28;20268;-67
2022/09/23 21:17:18;;;;;;;8.33;6.17;;;6.80;99.90;;;;;;8381699;28;20221;-67
2022/09/23 21:21:21;;;;;;;7.30;5.57;;;6.70;99.90;;;;;;8379619;28;20428;-67
2022/09/23 21:25:21;;;;;;;6.77;4.97;;;6.70;99.90;;;;;;8379675;28;20191;-67
2022/09/23 21:29:22;;;;;;;6.00;4.70;;;6.60;99.90;;;;;;8386030;28;20177;-67
2022/09/23 21:33:23;;;;;;;6.37;5.23;;;6.50;99.90;;;;;;8388523;28;20188;-67
2022/09/23 21:37:24;;;;;;;6.10;5.20;;;6.50;99.90;;;;;;8389761;28;20213;-67
2022/09/23 21:41:26;;;;;;;6.83;4.93;;;6.40;99.90;;;;;;8388425;28;20208;-67
2022/09/23 21:45:27;;;;;;;6.30;4.93;;;6.30;99.90;;;;;;8388534;28;20505;-67
2022/09/23 21:49:27;;;;;;;5.00;4.37;;;6.30;99.90;;;;;;8387672;28;20185;-67
2022/09/23 21:53:30;;;;;;;6.73;4.70;;;6.20;99.90;;;;;;8398028;28;20188;-67